createdAt,value
2022-08-17T00:01:55.878Z,21.40
2022-08-17T00:04:50.476Z,21.37
2022-08-17T00:07:38.715Z,21.29
2022-08-17T00:10:26.818Z,21.23
2022-08-17T00:13:17.547Z,21.21
2022-08-17T00:16:08.878Z,21.16
2022-08-17T00:19:07.062Z,21.15
2022-08-17T00:22:31.815Z,21.14
2022-08-17T00:25:13.205Z,21.09
2022-08-17T00:28:02.028Z,21.07
2022-08-17T00:30:52.868Z,21.03
2022-08-17T00:33:43.885Z,21.00
2022-08-17T00:36:31.971Z,21.07
2022-08-17T00:39:21.478Z,21.10
2022-08-17T00:42:14.697Z,21.07
2022-08-17T00:45:04.397Z,21.08
2022-08-17T00:47:52.467Z,21.08
2022-08-17T00:50:44.699Z,21.12
2022-08-17T00:53:34.662Z,21.10
2022-08-17T00:56:30.674Z,21.08
2022-08-17T00:59:21.948Z,21.09
2022-08-17T01:02:13.435Z,21.05
2022-08-17T01:05:01.772Z,21.05
2022-08-17T01:07:51.176Z,21.06
2022-08-17T01:10:59.917Z,20.99
2022-08-17T01:13:51.950Z,21.05
2022-08-17T01:16:40.393Z,21.10
2022-08-17T01:19:31.537Z,21.08
2022-08-17T01:22:22.675Z,20.90
2022-08-17T01:25:12.680Z,20.87
2022-08-17T01:28:01.580Z,20.86
2022-08-17T01:30:57.791Z,20.84
2022-08-17T01:33:47.454Z,20.78
2022-08-17T01:36:36.000Z,20.69
2022-08-17T01:39:30.821Z,20.67
2022-08-17T01:42:23.683Z,20.13
2022-08-17T01:45:14.639Z,20.61
2022-08-17T01:48:02.751Z,20.70
2022-08-17T01:50:52.728Z,20.75
2022-08-17T01:53:46.167Z,20.78
2022-08-17T01:56:37.686Z,20.76
2022-08-17T01:59:25.788Z,20.77
2022-08-17T02:02:30.996Z,20.84
2022-08-17T02:05:19.948Z,20.83
2022-08-17T02:08:08.244Z,20.85
2022-08-17T02:11:11.705Z,20.84
2022-08-17T02:14:03.383Z,20.94
2022-08-17T02:16:52.475Z,20.99
2022-08-17T02:19:40.430Z,21.03
2022-08-17T02:22:29.775Z,21.10
2022-08-17T02:25:20.909Z,21.12
2022-08-17T02:28:12.458Z,21.14
2022-08-17T02:31:07.743Z,21.08
2022-08-17T02:34:04.235Z,20.97
2022-08-17T02:36:54.060Z,20.89
2022-08-17T02:39:42.107Z,20.71
2022-08-17T02:42:33.765Z,20.58
2022-08-17T02:45:24.639Z,20.41
2022-08-17T02:48:13.966Z,20.24
2022-08-17T02:51:19.176Z,20.08
2022-08-17T02:54:41.727Z,19.95
2022-08-17T02:57:15.347Z,19.77
2022-08-17T03:00:03.718Z,19.66
2022-08-17T03:02:52.231Z,19.52
2022-08-17T03:05:41.771Z,19.37
2022-08-17T03:08:30.102Z,19.24
2022-08-17T03:11:18.100Z,19.11
2022-08-17T03:14:06.193Z,18.99
2022-08-17T03:16:54.607Z,18.96
2022-08-17T03:19:43.077Z,18.87
2022-08-17T03:22:38.316Z,18.85
2022-08-17T03:25:29.035Z,18.87
2022-08-17T03:28:17.228Z,18.86
2022-08-17T03:31:05.851Z,18.80
2022-08-17T03:33:53.867Z,18.71
2022-08-17T03:36:41.979Z,18.63
2022-08-17T03:39:31.469Z,18.58
2022-08-17T03:42:32.201Z,18.49
2022-08-17T03:45:43.201Z,18.48
2022-08-17T03:48:49.448Z,18.55
2022-08-17T03:51:55.045Z,18.55
2022-08-17T03:55:03.161Z,18.58
2022-08-17T03:57:51.235Z,18.63
2022-08-17T04:00:45.664Z,18.58
2022-08-17T04:03:33.901Z,18.70
2022-08-17T04:06:22.589Z,18.70
2022-08-17T04:09:11.799Z,18.72
2022-08-17T04:12:04.860Z,18.68
2022-08-17T04:14:54.902Z,18.64
2022-08-17T04:17:44.193Z,18.56
2022-08-17T04:20:32.314Z,18.62
2022-08-17T04:23:20.968Z,18.71
2022-08-17T04:26:09.095Z,18.84
2022-08-17T04:28:59.516Z,18.95
2022-08-17T04:31:47.959Z,19.19
2022-08-17T04:34:36.371Z,19.22
2022-08-17T04:37:24.373Z,19.11
2022-08-17T04:40:30.651Z,19.09
2022-08-17T04:43:21.088Z,19.27
2022-08-17T04:46:12.013Z,19.42
2022-08-17T04:49:01.372Z,19.39
2022-08-17T04:51:54.692Z,19.38
2022-08-17T04:54:44.897Z,19.44
2022-08-17T04:57:38.480Z,19.41
2022-08-17T05:00:28.769Z,19.44
2022-08-17T05:03:18.148Z,19.49
2022-08-17T05:06:06.610Z,19.60
2022-08-17T05:08:55.689Z,19.81
2022-08-17T05:11:45.049Z,19.93
2022-08-17T05:14:33.974Z,20.10
2022-08-17T05:17:22.094Z,20.28
2022-08-17T05:20:12.241Z,20.50
2022-08-17T05:23:04.491Z,20.64
2022-08-17T05:25:56.288Z,20.67
2022-08-17T05:28:44.372Z,20.79
2022-08-17T05:31:34.056Z,20.83
2022-08-17T05:34:22.748Z,20.95
2022-08-17T05:37:12.138Z,20.98
2022-08-17T05:40:00.409Z,21.11
2022-08-17T05:42:48.658Z,21.16
2022-08-17T05:45:55.907Z,21.15
2022-08-17T05:48:47.320Z,21.11
2022-08-17T05:52:09.118Z,21.09
2022-08-17T05:55:11.939Z,21.08
2022-08-17T05:58:14.596Z,21.04
2022-08-17T06:01:08.641Z,21.11
2022-08-17T06:04:05.363Z,21.17
2022-08-17T06:07:00.328Z,20.94
2022-08-17T06:09:54.517Z,21.20
2022-08-17T06:12:56.975Z,21.36
2022-08-17T06:18:47.178Z,21.58
2022-08-17T06:21:39.000Z,21.61
2022-08-17T06:24:34.103Z,21.63
2022-08-17T06:27:30.191Z,21.64
2022-08-17T06:30:24.650Z,21.63
2022-08-17T06:33:21.796Z,21.72
2022-08-17T06:36:26.498Z,22.01
2022-08-17T06:39:26.536Z,22.44
2022-08-17T06:43:06.180Z,22.93
2022-08-17T06:45:40.011Z,23.32
2022-08-17T06:48:38.689Z,23.59
2022-08-17T06:51:31.696Z,23.63
2022-08-17T06:54:27.335Z,23.78
2022-08-17T06:57:20.018Z,23.83
2022-08-17T07:00:13.739Z,23.97
2022-08-17T07:03:11.097Z,23.94
2022-08-17T07:06:02.018Z,23.85
2022-08-17T07:08:54.911Z,23.62
2022-08-17T07:11:52.841Z,23.59
2022-08-17T07:14:51.452Z,23.55
2022-08-17T07:17:47.272Z,23.56
2022-08-17T07:20:43.313Z,23.52
2022-08-17T07:23:42.928Z,23.51
2022-08-17T07:26:30.969Z,23.60
2022-08-17T07:29:20.070Z,23.65
2022-08-17T07:32:09.487Z,23.59
2022-08-17T07:35:11.143Z,23.45
2022-08-17T07:38:24.183Z,23.38
2022-08-17T07:41:14.616Z,23.43
2022-08-17T07:44:02.871Z,23.25
2022-08-17T07:47:22.665Z,23.11
2022-08-17T07:50:27.411Z,22.98
2022-08-17T07:53:23.196Z,22.65
2022-08-17T07:56:11.289Z,22.65
2022-08-17T07:59:08.478Z,22.72
2022-08-17T08:02:26.449Z,22.77
2022-08-17T08:05:44.284Z,22.55
2022-08-17T08:08:37.811Z,23.32
2022-08-17T08:11:35.482Z,23.52
2022-08-17T08:14:29.285Z,23.74
2022-08-17T08:17:25.240Z,23.98
2022-08-17T08:20:37.761Z,24.20
2022-08-17T08:23:37.088Z,24.17
2022-08-17T08:26:32.672Z,24.07
2022-08-17T08:29:30.608Z,23.96
2022-08-17T08:32:29.160Z,23.98
2022-08-17T08:35:26.679Z,23.83
2022-08-17T08:38:28.191Z,23.57
2022-08-17T08:41:30.402Z,23.17
2022-08-17T08:44:59.981Z,23.17
2022-08-17T08:48:05.903Z,22.99
2022-08-17T08:51:09.676Z,23.09
2022-08-17T08:54:07.691Z,23.17
2022-08-17T09:00:15.816Z,23.47
2022-08-17T09:03:36.731Z,23.49
2022-08-17T09:06:46.218Z,23.65
2022-08-17T09:09:47.400Z,23.75
2022-08-17T09:12:44.509Z,23.74
2022-08-17T09:15:39.805Z,23.69
2022-08-17T09:19:00.011Z,23.88
2022-08-17T09:21:47.922Z,24.17
2022-08-17T09:24:41.328Z,24.29
2022-08-17T09:27:34.364Z,24.67
2022-08-17T09:30:24.937Z,24.83
2022-08-17T09:33:16.935Z,24.93
2022-08-17T09:36:10.988Z,24.91
2022-08-17T09:39:03.472Z,24.88
2022-08-17T09:41:57.119Z,24.65
2022-08-17T09:44:53.125Z,24.62
2022-08-17T09:47:50.625Z,24.83
2022-08-17T09:51:04.074Z,24.98
2022-08-17T09:53:54.210Z,25.07
2022-08-17T09:57:18.101Z,25.39
2022-08-17T10:00:17.869Z,25.53
2022-08-17T10:03:22.020Z,25.53
2022-08-17T10:06:21.757Z,25.65
2022-08-17T10:09:18.725Z,25.74
2022-08-17T10:12:20.384Z,25.83
2022-08-17T10:15:23.351Z,25.97
2022-08-17T10:18:31.786Z,26.10
2022-08-17T10:21:41.463Z,26.20
2022-08-17T10:25:21.539Z,26.25
2022-08-17T10:28:00.753Z,26.10
2022-08-17T10:31:05.465Z,25.77
2022-08-17T10:34:21.623Z,25.47
2022-08-17T10:37:28.245Z,25.22
2022-08-17T10:40:24.613Z,24.70
2022-08-17T10:43:29.211Z,24.94
2022-08-17T10:46:30.967Z,24.70
2022-08-17T10:49:29.347Z,24.57
2022-08-17T10:52:48.646Z,24.32
2022-08-17T10:55:36.693Z,24.21
2022-08-17T10:58:28.457Z,24.02
2022-08-17T11:01:17.581Z,24.16
2022-08-17T11:04:21.614Z,24.18
2022-08-17T11:07:22.885Z,24.33
2022-08-17T11:10:26.533Z,24.51
2022-08-17T11:13:28.850Z,24.57
2022-08-17T11:16:41.205Z,24.57
2022-08-17T11:19:46.975Z,24.69
2022-08-17T11:23:14.572Z,24.87
2022-08-17T11:26:18.375Z,25.00
2022-08-17T11:29:17.417Z,25.12
2022-08-17T11:32:13.312Z,25.20
2022-08-17T11:35:11.947Z,25.31
2022-08-17T11:38:19.446Z,25.82
2022-08-17T11:41:19.710Z,26.41
2022-08-17T11:44:32.834Z,26.86
2022-08-17T11:48:02.559Z,27.04
2022-08-17T11:51:24.426Z,27.06
2022-08-17T11:54:38.239Z,27.07
2022-08-17T11:58:06.443Z,27.52
2022-08-17T12:00:57.836Z,27.67
2022-08-17T12:03:54.329Z,27.52
2022-08-17T12:06:49.257Z,26.70
2022-08-17T12:09:44.876Z,26.05
2022-08-17T12:12:35.690Z,26.12
2022-08-17T12:15:30.904Z,26.58
2022-08-17T12:18:24.469Z,26.63
2022-08-17T12:21:38.780Z,26.66
2022-08-17T12:24:47.137Z,26.76
2022-08-17T12:27:56.834Z,26.64
2022-08-17T12:30:52.140Z,26.63
2022-08-17T12:33:44.581Z,26.74
2022-08-17T12:36:33.854Z,26.73
2022-08-17T12:39:25.183Z,26.83
2022-08-17T12:42:23.169Z,26.91
2022-08-17T12:45:24.403Z,26.70
2022-08-17T12:48:14.546Z,26.83
2022-08-17T12:51:07.750Z,27.05
2022-08-17T12:53:56.271Z,27.29
2022-08-17T12:56:47.669Z,27.46
2022-08-17T12:59:42.609Z,27.57
2022-08-17T13:02:45.024Z,27.37
2022-08-17T13:05:35.951Z,27.53
2022-08-17T13:08:28.661Z,27.64
2022-08-17T13:11:21.694Z,27.66
2022-08-17T13:14:11.187Z,27.67
2022-08-17T13:17:08.343Z,27.67
2022-08-17T13:19:59.766Z,27.63
2022-08-17T13:22:54.474Z,27.98
2022-08-17T13:25:42.464Z,28.29
2022-08-17T13:28:36.220Z,28.80
2022-08-17T13:31:49.222Z,29.42
2022-08-17T13:34:51.363Z,29.47
2022-08-17T13:38:01.218Z,29.44
2022-08-17T13:40:53.056Z,29.37
2022-08-17T13:43:45.970Z,29.26
2022-08-17T13:46:35.322Z,29.87
2022-08-17T13:49:23.922Z,30.46
2022-08-17T13:52:32.982Z,30.75
2022-08-17T13:55:23.667Z,30.29
2022-08-17T13:58:11.707Z,30.19
2022-08-17T14:01:20.019Z,30.05
2022-08-17T14:04:10.725Z,29.87
2022-08-17T14:07:01.952Z,29.82
2022-08-17T14:09:54.726Z,29.68
2022-08-17T14:12:44.718Z,29.61
2022-08-17T14:15:55.427Z,29.35
2022-08-17T14:18:56.549Z,29.38
2022-08-17T14:21:47.465Z,28.77
2022-08-17T14:24:44.863Z,28.57
2022-08-17T14:27:51.935Z,28.98
2022-08-17T14:30:43.055Z,29.55
2022-08-17T14:33:31.164Z,29.66
2022-08-17T14:36:19.186Z,29.85
2022-08-17T14:39:07.296Z,30.12
2022-08-17T14:41:58.195Z,30.10
2022-08-17T14:44:47.565Z,30.23
2022-08-17T14:47:36.726Z,29.95
2022-08-17T14:50:24.759Z,29.36
2022-08-17T14:53:15.736Z,29.62
2022-08-17T14:56:04.146Z,29.76
2022-08-17T14:58:52.831Z,29.86
2022-08-17T15:01:42.250Z,30.20
2022-08-17T15:04:30.355Z,30.03
2022-08-17T15:07:19.048Z,30.10
2022-08-17T15:10:08.883Z,30.15
2022-08-17T15:12:58.263Z,30.22
2022-08-17T15:15:46.290Z,29.88
2022-08-17T15:18:36.066Z,29.94
2022-08-17T15:21:24.106Z,30.13
2022-08-17T15:24:12.069Z,30.19
2022-08-17T15:27:00.139Z,30.30
2022-08-17T15:29:48.120Z,30.26
2022-08-17T15:32:40.587Z,30.30
2022-08-17T15:35:32.574Z,30.44
2022-08-17T15:38:21.763Z,30.28
2022-08-17T15:41:14.924Z,30.01
2022-08-17T15:44:02.931Z,29.95
2022-08-17T15:46:51.227Z,29.98
2022-08-17T15:49:40.414Z,30.02
2022-08-17T15:52:30.697Z,30.02
2022-08-17T15:55:23.968Z,29.70
2022-08-17T15:58:12.664Z,29.61
2022-08-17T16:01:18.384Z,29.68
2022-08-17T16:04:26.810Z,29.66
2022-08-17T16:07:17.471Z,29.58
2022-08-17T16:10:07.764Z,29.22
2022-08-17T16:12:55.775Z,29.43
2022-08-17T16:15:43.864Z,29.43
2022-08-17T16:18:32.594Z,29.37
2022-08-17T16:21:27.038Z,29.39
2022-08-17T16:24:15.194Z,29.46
2022-08-17T16:27:12.590Z,29.30
2022-08-17T16:30:00.971Z,28.93
2022-08-17T16:32:51.620Z,29.04
2022-08-17T16:35:42.073Z,29.19
2022-08-17T16:38:30.152Z,29.17
2022-08-17T16:41:32.436Z,29.20
2022-08-17T16:44:22.793Z,29.14
2022-08-17T16:47:10.835Z,28.91
2022-08-17T16:49:59.057Z,28.90
2022-08-17T16:52:48.416Z,28.86
2022-08-17T16:55:36.653Z,28.86
2022-08-17T16:58:24.733Z,28.79
2022-08-17T17:01:15.760Z,28.53
2022-08-17T17:04:07.096Z,28.57
2022-08-17T17:07:03.859Z,28.41
2022-08-17T17:09:55.346Z,28.38
2022-08-17T17:13:01.985Z,28.32
2022-08-17T17:15:57.714Z,28.04
2022-08-17T17:18:59.870Z,28.04
2022-08-17T17:21:52.818Z,27.92
2022-08-17T17:24:50.292Z,27.93
2022-08-17T17:27:43.713Z,27.72
2022-08-17T17:30:43.601Z,27.41
2022-08-17T17:33:38.531Z,27.25
2022-08-17T17:36:35.557Z,27.12
2022-08-17T17:39:31.868Z,27.01
2022-08-17T17:42:23.220Z,26.82
2022-08-17T17:45:19.540Z,26.64
2022-08-17T17:48:07.710Z,26.32
2022-08-17T17:51:07.051Z,26.15
2022-08-17T17:54:01.961Z,25.92
2022-08-17T17:56:58.586Z,25.76
2022-08-17T17:59:55.421Z,25.55
2022-08-17T18:02:56.486Z,25.45
2022-08-17T18:05:58.179Z,25.29
2022-08-17T18:09:02.841Z,25.16
2022-08-17T18:12:08.969Z,24.83
2022-08-17T18:15:11.278Z,24.93
2022-08-17T18:18:22.546Z,24.75
2022-08-17T18:21:16.844Z,24.67
2022-08-17T18:24:08.829Z,24.55
2022-08-17T18:26:59.235Z,24.48
2022-08-17T18:29:48.646Z,24.29
2022-08-17T18:32:41.294Z,24.16
2022-08-17T18:35:35.115Z,24.02
2022-08-17T18:38:28.752Z,23.96
2022-08-17T18:41:26.071Z,23.87
2022-08-17T18:44:25.780Z,23.81
2022-08-17T18:47:16.471Z,23.68
2022-08-17T18:50:23.653Z,23.65
2022-08-17T18:53:26.545Z,23.49
2022-08-17T18:56:31.279Z,23.38
2022-08-17T18:59:27.928Z,23.29
2022-08-17T19:02:44.758Z,23.21
2022-08-17T19:05:37.814Z,23.08
2022-08-17T19:08:34.395Z,23.05
2022-08-17T19:11:28.233Z,22.96
2022-08-17T19:14:20.115Z,22.90
2022-08-17T19:17:12.479Z,22.86
2022-08-17T19:20:05.750Z,22.79
2022-08-17T19:23:04.782Z,22.62
2022-08-17T19:25:55.634Z,22.57
2022-08-17T19:28:50.424Z,22.53
2022-08-17T19:31:39.928Z,22.48
2022-08-17T19:34:33.984Z,22.40
2022-08-17T19:37:33.916Z,22.26
2022-08-17T19:40:52.492Z,22.15
2022-08-17T19:43:55.427Z,22.05
2022-08-17T19:47:00.893Z,21.91
2022-08-17T19:50:01.066Z,21.84
2022-08-17T19:52:57.883Z,21.55
2022-08-17T19:55:54.784Z,21.82
2022-08-17T19:58:53.441Z,21.84
2022-08-17T20:01:50.100Z,21.80
2022-08-17T20:04:43.613Z,21.75
2022-08-17T20:07:43.129Z,21.67
2022-08-17T20:10:39.610Z,21.55
2022-08-17T20:13:41.843Z,21.58
2022-08-17T20:16:30.316Z,21.49
2022-08-17T20:19:25.102Z,21.43
2022-08-17T20:22:21.919Z,21.38
2022-08-17T20:25:17.106Z,21.36
2022-08-17T20:28:24.705Z,21.37
2022-08-17T20:31:41.394Z,21.34
2022-08-17T20:34:38.080Z,21.25
2022-08-17T20:37:31.722Z,21.12
2022-08-17T20:40:29.922Z,21.03
2022-08-17T20:43:46.477Z,20.92
2022-08-17T20:46:56.357Z,20.82
2022-08-17T20:49:55.765Z,20.75
2022-08-17T20:52:51.690Z,20.72
2022-08-17T20:55:54.691Z,20.68
2022-08-17T20:58:47.682Z,20.62
2022-08-17T21:01:39.507Z,20.59
2022-08-17T21:05:00.091Z,20.65
2022-08-17T21:07:57.885Z,20.72
2022-08-17T21:10:47.853Z,20.72
2022-08-17T21:14:01.793Z,20.65
2022-08-17T21:17:06.714Z,20.10
2022-08-17T21:20:17.152Z,20.64
2022-08-17T21:23:20.672Z,20.66
2022-08-17T21:26:23.636Z,20.62
2022-08-17T21:29:31.358Z,20.52
2022-08-17T21:32:29.158Z,20.45
2022-08-17T21:35:28.351Z,20.44
2022-08-17T21:38:20.720Z,20.41
2022-08-17T21:41:20.023Z,20.42
2022-08-17T21:44:22.019Z,20.37
2022-08-17T21:47:19.290Z,20.33
2022-08-17T21:50:18.593Z,20.32
2022-08-17T21:53:08.716Z,20.29
2022-08-17T21:55:58.108Z,20.35
2022-08-17T21:58:48.563Z,20.38
2022-08-17T22:01:39.900Z,20.41
2022-08-17T22:04:31.122Z,20.44
2022-08-17T22:07:35.951Z,20.55
2022-08-17T22:10:34.522Z,20.59
2022-08-17T22:13:29.726Z,20.55
2022-08-17T22:16:29.382Z,20.59
2022-08-17T22:19:18.720Z,20.61
2022-08-17T22:22:09.659Z,20.64
2022-08-17T22:24:59.883Z,20.69
2022-08-17T22:27:52.049Z,20.77
2022-08-17T22:30:43.175Z,20.65
2022-08-17T22:33:39.586Z,20.77
2022-08-17T22:36:29.655Z,20.62
2022-08-17T22:39:41.606Z,20.64
2022-08-17T22:42:29.687Z,20.59
2022-08-17T22:45:18.008Z,20.57
2022-08-17T22:48:07.472Z,20.57
2022-08-17T22:51:12.650Z,20.58
2022-08-17T22:54:21.739Z,20.66
2022-08-17T22:57:32.229Z,20.63
2022-08-17T23:00:38.344Z,20.58
2022-08-17T23:03:28.167Z,20.49
2022-08-17T23:06:16.271Z,20.51
2022-08-17T23:09:06.863Z,20.54
2022-08-17T23:11:58.491Z,20.55
2022-08-17T23:14:49.304Z,20.58
2022-08-17T23:17:38.809Z,20.57
2022-08-17T23:20:28.178Z,20.62
2022-08-17T23:23:18.743Z,20.54
2022-08-17T23:26:11.287Z,20.51
2022-08-17T23:28:59.964Z,20.69
2022-08-17T23:31:49.154Z,21.16
2022-08-17T23:34:38.313Z,21.56
2022-08-17T23:37:28.360Z,21.75
2022-08-17T23:40:16.635Z,21.89
2022-08-17T23:43:11.425Z,22.02
2022-08-17T23:46:13.042Z,22.09
2022-08-17T23:49:01.176Z,22.19
2022-08-17T23:51:50.257Z,22.20
2022-08-17T23:54:43.574Z,22.20
2022-08-17T23:57:33.693Z,22.25
